createdAt,value
2022-09-12T00:01:11.095Z,60.07
2022-09-12T00:03:38.936Z,60.43
2022-09-12T00:06:23.157Z,60.31
2022-09-12T00:08:51.006Z,62.24
2022-09-12T00:11:18.779Z,61.78
2022-09-12T00:13:45.675Z,61.66
2022-09-12T00:16:18.098Z,61.89
2022-09-12T00:18:47.036Z,63.11
2022-09-12T00:21:15.816Z,63.95
2022-09-12T00:23:42.851Z,65.70
2022-09-12T00:26:09.955Z,64.96
2022-09-12T00:28:38.710Z,64.72
2022-09-12T00:31:12.321Z,64.81
2022-09-12T00:33:39.721Z,65.35
2022-09-12T00:36:09.392Z,64.58
2022-09-12T00:38:38.887Z,64.74
2022-09-12T00:41:06.497Z,65.63
2022-09-12T00:43:45.905Z,66.88
2022-09-12T00:46:20.856Z,65.08
2022-09-12T00:49:00.558Z,65.01
2022-09-12T00:51:51.666Z,64.22
2022-09-12T00:54:24.526Z,63.21
2022-09-12T00:56:55.919Z,64.61
2022-09-12T00:59:29.446Z,63.17
2022-09-12T01:01:56.896Z,63.29
2022-09-12T01:04:26.449Z,63.21
2022-09-12T01:06:56.533Z,62.34
2022-09-12T01:09:24.041Z,60.92
2022-09-12T01:11:52.130Z,62.04
2022-09-12T01:14:19.896Z,61.18
2022-09-12T01:16:48.635Z,60.28
2022-09-12T01:19:31.997Z,60.80
2022-09-12T01:22:49.276Z,59.48
2022-09-12T01:25:31.351Z,60.87
2022-09-12T01:28:46.663Z,60.74
2022-09-12T01:31:42.718Z,61.22
2022-09-12T01:34:29.066Z,63.49
2022-09-12T01:37:25.177Z,62.64
2022-09-12T01:40:01.590Z,60.86
2022-09-12T01:42:33.985Z,61.03
2022-09-12T01:45:11.965Z,61.53
2022-09-12T01:47:44.166Z,62.27
2022-09-12T01:50:19.611Z,63.39
2022-09-12T01:52:54.875Z,63.57
2022-09-12T01:55:32.707Z,64.36
2022-09-12T01:58:22.786Z,65.65
2022-09-12T02:01:02.602Z,66.13
2022-09-12T02:03:45.199Z,66.10
2022-09-12T02:06:25.517Z,66.11
2022-09-12T02:09:01.757Z,65.98
2022-09-12T02:11:31.987Z,64.85
2022-09-12T02:14:25.744Z,64.26
2022-09-12T02:17:03.886Z,63.56
2022-09-12T02:19:36.629Z,62.97
2022-09-12T02:22:05.199Z,63.01
2022-09-12T02:24:45.816Z,62.29
2022-09-12T02:27:15.115Z,62.50
2022-09-12T02:29:44.769Z,62.11
2022-09-12T02:32:24.406Z,62.35
2022-09-12T02:35:16.035Z,63.14
2022-09-12T02:37:57.867Z,61.98
2022-09-12T02:40:25.788Z,64.00
2022-09-12T02:42:52.927Z,63.75
2022-09-12T02:45:20.139Z,64.19
2022-09-12T02:48:20.546Z,64.41
2022-09-12T02:50:47.666Z,64.27
2022-09-12T02:53:14.581Z,63.89
2022-09-12T02:55:43.116Z,62.92
2022-09-12T02:58:15.576Z,62.52
2022-09-12T03:00:46.786Z,62.32
2022-09-12T03:03:52.686Z,60.65
2022-09-12T03:06:31.596Z,61.04
2022-09-12T03:09:02.106Z,60.19
2022-09-12T03:11:47.034Z,60.22
2022-09-12T03:14:26.826Z,61.56
2022-09-12T03:16:59.177Z,62.28
2022-09-12T03:19:56.766Z,63.26
2022-09-12T03:22:29.265Z,63.32
2022-09-12T03:25:06.560Z,63.71
2022-09-12T03:27:54.376Z,65.17
2022-09-12T03:30:21.147Z,66.55
2022-09-12T03:32:51.152Z,66.99
2022-09-12T03:35:23.115Z,69.30
2022-09-12T03:37:51.034Z,71.52
2022-09-12T03:40:17.946Z,70.32
2022-09-12T03:42:44.690Z,68.30
2022-09-12T03:45:11.921Z,66.73
2022-09-12T03:47:38.948Z,65.66
2022-09-12T03:50:06.588Z,64.62
2022-09-12T03:52:34.239Z,64.12
2022-09-12T03:55:00.939Z,64.13
2022-09-12T03:57:27.647Z,65.02
2022-09-12T03:59:54.316Z,65.50
2022-09-12T04:02:21.400Z,66.54
2022-09-12T04:04:48.961Z,65.74
2022-09-12T04:07:16.879Z,65.13
2022-09-12T04:09:44.066Z,65.18
2022-09-12T04:12:10.846Z,67.38
2022-09-12T04:14:37.832Z,66.97
2022-09-12T04:17:04.639Z,68.47
2022-09-12T04:19:31.359Z,67.86
2022-09-12T04:21:58.274Z,68.51
2022-09-12T04:24:24.957Z,68.13
2022-09-12T04:26:51.967Z,68.51
2022-09-12T04:29:18.673Z,70.61
2022-09-12T04:31:45.358Z,69.05
2022-09-12T04:34:12.062Z,69.62
2022-09-12T04:36:39.393Z,68.60
2022-09-12T04:39:07.839Z,67.37
2022-09-12T04:41:37.268Z,67.42
2022-09-12T04:44:08.220Z,67.27
2022-09-12T04:46:38.796Z,68.19
2022-09-12T04:49:06.076Z,66.78
2022-09-12T04:51:35.983Z,64.26
2022-09-12T04:54:15.338Z,61.27
2022-09-12T04:56:44.062Z,58.31
2022-09-12T04:59:12.075Z,56.00
2022-09-12T05:01:39.245Z,55.52
2022-09-12T05:04:06.381Z,54.44
2022-09-12T05:06:35.581Z,53.41
2022-09-12T05:09:05.347Z,52.00
2022-09-12T05:12:02.106Z,51.27
2022-09-12T05:14:20.538Z,49.61
2022-09-12T05:16:49.584Z,48.11
2022-09-12T05:19:17.302Z,46.27
2022-09-12T05:21:43.952Z,44.76
2022-09-12T05:24:11.669Z,42.90
2022-09-12T05:26:38.596Z,41.70
2022-09-12T05:29:07.232Z,39.85
2022-09-12T05:31:35.030Z,40.37
2022-09-12T05:34:01.997Z,40.88
2022-09-12T05:36:30.065Z,39.83
2022-09-12T05:38:57.628Z,39.60
2022-09-12T05:41:33.046Z,39.18
2022-09-12T05:44:02.605Z,39.18
2022-09-12T05:46:40.037Z,38.41
2022-09-12T05:49:10.491Z,37.72
2022-09-12T05:51:39.938Z,36.61
2022-09-12T05:54:07.946Z,36.83
2022-09-12T05:56:41.087Z,36.19
2022-09-12T05:59:13.106Z,35.71
2022-09-12T06:01:40.532Z,36.68
2022-09-12T06:04:07.893Z,35.84
2022-09-12T06:06:41.902Z,36.55
2022-09-12T06:09:09.450Z,37.62
2022-09-12T06:11:40.888Z,38.11
2022-09-12T06:14:08.966Z,38.76
2022-09-12T06:16:37.473Z,39.46
2022-09-12T06:19:07.575Z,40.00
2022-09-12T06:21:35.545Z,39.78
2022-09-12T06:24:02.767Z,39.44
2022-09-12T06:26:30.438Z,39.36
2022-09-12T06:28:59.619Z,39.69
2022-09-12T06:31:32.027Z,39.15
2022-09-12T06:34:01.723Z,38.92
2022-09-12T06:36:46.354Z,38.89
2022-09-12T06:39:20.206Z,37.98
2022-09-12T06:41:48.498Z,36.96
2022-09-12T06:44:22.984Z,37.60
2022-09-12T06:46:50.393Z,38.11
2022-09-12T06:49:18.232Z,38.62
2022-09-12T06:51:45.448Z,37.97
2022-09-12T06:54:14.357Z,38.03
2022-09-12T06:56:41.672Z,37.41
2022-09-12T06:59:08.786Z,38.08
2022-09-12T07:01:35.593Z,38.54
2022-09-12T07:04:04.475Z,38.87
2022-09-12T07:06:37.312Z,40.58
2022-09-12T07:09:05.517Z,38.98
2022-09-12T07:11:35.086Z,40.49
2022-09-12T07:14:04.015Z,39.96
2022-09-12T07:16:34.507Z,40.26
2022-09-12T07:19:03.518Z,40.13
2022-09-12T07:21:31.211Z,41.11
2022-09-12T07:23:58.566Z,39.83
2022-09-12T07:26:27.831Z,40.05
2022-09-12T07:29:03.947Z,42.33
2022-09-12T07:31:39.942Z,39.82
2022-09-12T07:34:06.987Z,40.21
2022-09-12T07:36:33.815Z,40.01
2022-09-12T07:39:00.777Z,40.04
2022-09-12T07:41:33.717Z,40.85
2022-09-12T07:44:03.069Z,39.55
2022-09-12T07:46:31.648Z,41.50
2022-09-12T07:48:59.888Z,37.92
2022-09-12T07:51:29.026Z,39.44
2022-09-12T07:53:56.713Z,38.01
2022-09-12T07:56:30.500Z,39.94
2022-09-12T07:58:58.117Z,39.53
2022-09-12T08:01:24.911Z,38.91
2022-09-12T08:03:57.396Z,38.70
2022-09-12T08:06:25.909Z,40.40
2022-09-12T08:08:55.649Z,42.84
2022-09-12T08:11:24.026Z,42.86
2022-09-12T08:13:55.459Z,40.89
2022-09-12T08:16:25.500Z,40.43
2022-09-12T08:18:52.874Z,41.54
2022-09-12T08:21:22.346Z,40.94
2022-09-12T08:23:52.690Z,39.09
2022-09-12T08:26:19.921Z,39.59
2022-09-12T08:28:47.077Z,37.93
2022-09-12T08:31:16.911Z,37.52
2022-09-12T08:33:44.459Z,36.34
2022-09-12T08:36:22.807Z,37.46
2022-09-12T08:38:53.639Z,36.15
2022-09-12T08:41:28.876Z,34.66
2022-09-12T08:44:08.976Z,35.92
2022-09-12T08:46:44.972Z,34.77
2022-09-12T08:49:23.566Z,35.25
2022-09-12T08:51:51.127Z,35.83
2022-09-12T08:54:36.647Z,35.10
2022-09-12T08:57:07.287Z,35.44
2022-09-12T08:59:44.979Z,34.91
2022-09-12T09:02:51.354Z,33.88
2022-09-12T09:05:52.770Z,33.15
2022-09-12T09:08:23.081Z,33.88
2022-09-12T09:11:05.584Z,32.95
2022-09-12T09:14:09.175Z,34.12
2022-09-12T09:16:45.763Z,35.60
2022-09-12T09:19:23.056Z,33.88
2022-09-12T09:22:00.987Z,35.82
2022-09-12T09:24:50.893Z,34.90
2022-09-12T09:27:41.048Z,33.24
2022-09-12T09:30:21.701Z,32.37
2022-09-12T09:32:55.407Z,34.67
2022-09-12T09:35:45.215Z,30.85
2022-09-12T09:38:36.795Z,31.11
2022-09-12T09:41:24.796Z,32.17
2022-09-12T09:43:51.826Z,31.60
2022-09-12T09:46:18.845Z,37.83
2022-09-12T09:48:49.657Z,33.74
2022-09-12T09:51:27.255Z,32.46
2022-09-12T09:54:02.748Z,32.57
2022-09-12T09:56:34.299Z,32.77
2022-09-12T09:59:18.836Z,35.20
2022-09-12T10:01:45.591Z,34.77
2022-09-12T10:04:23.709Z,34.53
2022-09-12T10:06:57.346Z,34.06
2022-09-12T10:09:36.256Z,33.85
2022-09-12T10:12:25.236Z,33.73
2022-09-12T10:15:00.861Z,33.54
2022-09-12T10:17:44.205Z,34.00
2022-09-12T10:20:32.587Z,32.92
2022-09-12T10:23:02.279Z,34.55
2022-09-12T10:25:29.481Z,31.43
2022-09-12T10:27:59.867Z,31.98
2022-09-12T10:30:30.964Z,31.23
2022-09-12T10:33:06.583Z,31.40
2022-09-12T10:35:45.229Z,33.02
2022-09-12T10:38:21.628Z,32.53
2022-09-12T10:40:58.077Z,32.86
2022-09-12T10:43:34.569Z,32.61
2022-09-12T10:46:16.708Z,30.66
2022-09-12T10:48:45.437Z,32.77
2022-09-12T10:51:26.546Z,31.27
2022-09-12T10:54:00.227Z,29.94
2022-09-12T10:56:39.132Z,31.13
2022-09-12T10:59:24.555Z,29.65
2022-09-12T11:02:33.316Z,29.48
2022-09-12T11:05:23.007Z,33.70
2022-09-12T11:08:00.417Z,29.87
2022-09-12T11:10:27.449Z,32.69
2022-09-12T11:13:23.887Z,30.76
2022-09-12T11:16:02.943Z,31.06
2022-09-12T11:18:54.993Z,30.49
2022-09-12T11:21:52.787Z,31.22
2022-09-12T11:24:28.275Z,30.26
2022-09-12T11:27:46.007Z,30.12
2022-09-12T11:30:16.505Z,33.74
2022-09-12T11:32:43.187Z,32.65
2022-09-12T11:35:17.670Z,30.51
2022-09-12T11:38:03.199Z,30.72
2022-09-12T11:40:36.243Z,28.81
2022-09-12T11:43:29.938Z,28.64
2022-09-12T11:46:07.188Z,29.83
2022-09-12T11:48:44.220Z,27.55
2022-09-12T11:51:26.018Z,28.87
2022-09-12T11:54:03.709Z,31.60
2022-09-12T11:56:30.826Z,32.59
2022-09-12T11:59:04.452Z,32.26
2022-09-12T12:01:44.948Z,32.14
2022-09-12T12:04:20.782Z,32.34
2022-09-12T12:06:58.154Z,29.35
2022-09-12T12:09:25.842Z,29.40
2022-09-12T12:11:57.745Z,28.92
2022-09-12T12:14:32.097Z,28.20
2022-09-12T12:16:59.466Z,27.83
2022-09-12T12:19:38.354Z,28.47
2022-09-12T12:22:20.377Z,28.59
2022-09-12T12:25:06.088Z,30.50
2022-09-12T12:27:59.486Z,27.95
2022-09-12T12:30:32.126Z,27.87
2022-09-12T12:33:07.110Z,27.70
2022-09-12T12:35:47.020Z,28.51
2022-09-12T12:38:31.198Z,29.78
2022-09-12T12:41:21.807Z,29.50
2022-09-12T12:43:53.327Z,31.68
2022-09-12T12:46:26.260Z,29.36
2022-09-12T12:49:00.800Z,28.56
2022-09-12T12:51:36.786Z,29.65
2022-09-12T12:54:25.507Z,29.89
2022-09-12T12:57:05.953Z,28.37
2022-09-12T12:59:32.988Z,30.18
2022-09-12T13:02:00.356Z,29.75
2022-09-12T13:04:30.728Z,29.72
2022-09-12T13:07:07.200Z,29.68
2022-09-12T13:09:40.224Z,28.68
2022-09-12T13:12:11.682Z,28.33
2022-09-12T13:14:50.499Z,30.23
2022-09-12T13:17:30.981Z,30.56
2022-09-12T13:20:27.264Z,30.94
2022-09-12T13:22:55.535Z,33.71
2022-09-12T13:25:27.036Z,31.39
2022-09-12T13:28:07.874Z,31.91
2022-09-12T13:30:40.391Z,31.80
2022-09-12T13:33:25.000Z,32.56
2022-09-12T13:36:03.636Z,31.50
2022-09-12T13:39:13.747Z,31.73
2022-09-12T13:41:58.638Z,30.42
2022-09-12T13:44:27.083Z,32.16
2022-09-12T13:46:55.700Z,30.36
2022-09-12T13:49:38.579Z,30.48
2022-09-12T13:52:09.636Z,30.17
2022-09-12T13:54:39.166Z,28.90
2022-09-12T13:57:06.520Z,29.08
2022-09-12T13:59:41.298Z,30.04
2022-09-12T14:02:23.156Z,29.07
2022-09-12T14:05:09.296Z,30.36
2022-09-12T14:07:53.467Z,29.07
2022-09-12T14:10:26.577Z,29.56
2022-09-12T14:12:55.449Z,30.97
2022-09-12T14:15:28.268Z,30.16
2022-09-12T14:18:01.521Z,28.71
2022-09-12T14:20:33.255Z,30.45
2022-09-12T14:23:28.397Z,28.93
2022-09-12T14:25:57.176Z,29.39
2022-09-12T14:28:27.349Z,29.80
2022-09-12T14:31:06.979Z,31.84
2022-09-12T14:33:55.377Z,31.67
2022-09-12T14:36:35.697Z,34.91
2022-09-12T14:39:05.856Z,35.69
2022-09-12T14:41:39.100Z,35.41
2022-09-12T14:44:10.797Z,33.98
2022-09-12T14:46:40.614Z,34.17
2022-09-12T14:49:34.707Z,33.89
2022-09-12T14:52:26.227Z,33.82
2022-09-12T14:55:18.088Z,33.23
2022-09-12T14:57:45.375Z,32.57
2022-09-12T15:00:12.083Z,33.86
2022-09-12T15:02:40.268Z,34.65
2022-09-12T15:05:06.992Z,35.47
2022-09-12T15:07:37.807Z,33.56
2022-09-12T15:10:34.046Z,33.84
2022-09-12T15:13:09.871Z,34.68
2022-09-12T15:15:38.047Z,35.33
2022-09-12T15:18:06.848Z,35.07
2022-09-12T15:20:36.567Z,34.30
2022-09-12T15:23:03.170Z,35.48
2022-09-12T15:25:30.023Z,35.09
2022-09-12T15:27:56.717Z,34.98
2022-09-12T15:30:23.376Z,34.04
2022-09-12T15:32:50.090Z,35.14
2022-09-12T15:35:23.756Z,34.90
2022-09-12T15:37:51.276Z,34.92
2022-09-12T15:40:18.357Z,34.45
2022-09-12T15:42:45.288Z,33.86
2022-09-12T15:45:21.118Z,33.98
2022-09-12T15:47:47.918Z,34.05
2022-09-12T15:50:15.290Z,34.80
2022-09-12T15:52:42.849Z,35.04
2022-09-12T15:55:18.604Z,34.23
2022-09-12T15:57:45.938Z,35.02
2022-09-12T16:00:14.652Z,35.44
2022-09-12T16:02:41.749Z,33.98
2022-09-12T16:05:15.110Z,34.11
2022-09-12T16:07:42.661Z,35.58
2022-09-12T16:10:15.196Z,34.95
2022-09-12T16:12:42.467Z,35.52
2022-09-12T16:15:14.008Z,35.04
2022-09-12T16:17:41.061Z,34.89
2022-09-12T16:20:08.346Z,35.70
2022-09-12T16:22:35.092Z,35.58
2022-09-12T16:25:02.239Z,35.23
2022-09-12T16:27:28.917Z,35.59
2022-09-12T16:29:55.847Z,35.71
2022-09-12T16:32:22.579Z,35.87
2022-09-12T16:34:50.397Z,35.95
2022-09-12T16:37:18.342Z,35.48
2022-09-12T16:39:46.184Z,35.16
2022-09-12T16:42:12.898Z,35.44
2022-09-12T16:44:39.677Z,35.20
2022-09-12T16:47:06.681Z,35.59
2022-09-12T16:49:33.496Z,35.84
2022-09-12T16:52:00.162Z,35.77
2022-09-12T16:54:26.927Z,35.41
2022-09-12T16:56:53.762Z,35.80
2022-09-12T16:59:20.562Z,35.87
2022-09-12T17:01:47.404Z,35.79
2022-09-12T17:04:14.118Z,36.19
2022-09-12T17:06:42.118Z,36.10
2022-09-12T17:09:10.713Z,36.15
2022-09-12T17:11:38.917Z,36.35
2022-09-12T17:14:08.947Z,36.08
2022-09-12T17:16:45.937Z,36.25
2022-09-12T17:19:22.989Z,36.57
2022-09-12T17:21:50.325Z,36.69
2022-09-12T17:24:18.464Z,36.82
2022-09-12T17:26:46.198Z,37.00
2022-09-12T17:29:14.811Z,37.01
2022-09-12T17:31:43.006Z,37.41
2022-09-12T17:34:10.076Z,38.01
2022-09-12T17:36:37.094Z,37.98
2022-09-12T17:39:04.276Z,38.25
2022-09-12T17:41:34.680Z,38.17
2022-09-12T17:44:03.209Z,38.38
2022-09-12T17:46:35.242Z,38.43
2022-09-12T17:49:03.846Z,38.02
2022-09-12T17:51:31.390Z,38.54
2022-09-12T17:54:03.768Z,39.04
2022-09-12T17:56:32.532Z,39.38
2022-09-12T17:59:00.465Z,39.43
2022-09-12T18:01:47.310Z,40.04
2022-09-12T18:04:14.479Z,40.77
2022-09-12T18:06:48.060Z,41.11
2022-09-12T18:09:18.296Z,42.00
2022-09-12T18:11:45.982Z,42.50
2022-09-12T18:14:14.397Z,42.62
2022-09-12T18:16:42.216Z,42.85
2022-09-12T18:19:09.414Z,41.88
2022-09-12T18:21:36.460Z,42.06
2022-09-12T18:24:04.404Z,42.03
2022-09-12T18:26:32.349Z,43.30
2022-09-12T18:28:59.503Z,43.50
2022-09-12T18:31:29.628Z,43.72
2022-09-12T18:33:57.848Z,44.16
2022-09-12T18:36:26.268Z,45.42
2022-09-12T18:38:53.022Z,45.89
2022-09-12T18:41:23.178Z,46.64
2022-09-12T18:43:54.086Z,47.76
2022-09-12T18:46:21.395Z,47.58
2022-09-12T18:48:48.536Z,48.30
2022-09-12T18:51:21.079Z,48.36
2022-09-12T18:53:54.977Z,48.13
2022-09-12T18:56:23.461Z,46.85
2022-09-12T18:58:52.579Z,47.84
2022-09-12T19:01:22.815Z,46.95
2022-09-12T19:03:50.428Z,47.95
2022-09-12T19:06:19.638Z,48.20
2022-09-12T19:08:47.742Z,48.19
2022-09-12T19:11:14.759Z,48.06
2022-09-12T19:13:44.627Z,48.00
2022-09-12T19:16:14.293Z,49.01
2022-09-12T19:18:41.334Z,48.56
2022-09-12T19:21:13.396Z,49.76
2022-09-12T19:23:40.176Z,50.83
2022-09-12T19:26:09.079Z,49.45
2022-09-12T19:28:35.840Z,49.65
2022-09-12T19:31:07.507Z,49.45
2022-09-12T19:33:34.891Z,48.52
2022-09-12T19:36:17.561Z,49.77
2022-09-12T19:38:54.036Z,49.50
2022-09-12T19:41:21.682Z,49.97
2022-09-12T19:43:48.488Z,50.21
2022-09-12T19:46:20.674Z,49.99
2022-09-12T19:48:48.090Z,49.34
2022-09-12T19:51:16.027Z,49.42
2022-09-12T19:53:42.897Z,49.89
2022-09-12T19:56:12.014Z,49.86
2022-09-12T19:58:43.735Z,50.27
2022-09-12T20:01:25.197Z,51.23
2022-09-12T20:03:55.047Z,51.65
2022-09-12T20:06:22.150Z,51.55
2022-09-12T20:08:49.138Z,53.12
2022-09-12T20:11:18.185Z,53.26
2022-09-12T20:13:45.945Z,51.84
2022-09-12T20:16:21.280Z,52.90
2022-09-12T20:18:53.927Z,52.62
2022-09-12T20:21:25.474Z,52.05
2022-09-12T20:23:52.565Z,52.46
2022-09-12T20:26:20.694Z,51.82
2022-09-12T20:28:48.067Z,53.98
2022-09-12T20:31:16.667Z,54.47
2022-09-12T20:33:47.575Z,54.43
2022-09-12T20:36:19.101Z,54.75
2022-09-12T20:38:51.457Z,52.62
2022-09-12T20:41:19.278Z,53.72
2022-09-12T20:43:49.897Z,53.08
2022-09-12T20:46:21.435Z,51.23
2022-09-12T20:48:48.754Z,52.84
2022-09-12T20:51:15.503Z,54.18
2022-09-12T20:53:42.326Z,56.63
2022-09-12T20:56:09.101Z,57.59
2022-09-12T20:58:38.369Z,55.91
2022-09-12T21:01:11.397Z,56.61
2022-09-12T21:03:39.177Z,56.75
2022-09-12T21:06:06.567Z,57.78
2022-09-12T21:08:33.716Z,57.74
2022-09-12T21:11:01.102Z,57.34
2022-09-12T21:13:28.060Z,58.45
2022-09-12T21:16:02.387Z,57.59
2022-09-12T21:18:29.606Z,56.04
2022-09-12T21:20:56.797Z,57.87
2022-09-12T21:23:25.260Z,58.04
2022-09-12T21:25:52.844Z,57.17
2022-09-12T21:28:20.648Z,56.33
2022-09-12T21:30:51.517Z,55.78
2022-09-12T21:33:20.336Z,54.55
2022-09-12T21:35:48.408Z,53.99
2022-09-12T21:38:16.380Z,52.91
2022-09-12T21:40:43.136Z,53.85
2022-09-12T21:43:12.756Z,55.19
2022-09-12T21:45:40.136Z,55.45
2022-09-12T21:48:06.828Z,54.99
2022-09-12T21:50:33.615Z,55.13
2022-09-12T21:53:00.380Z,55.92
2022-09-12T21:55:27.537Z,54.92
2022-09-12T21:57:55.297Z,53.04
2022-09-12T22:00:22.508Z,54.09
2022-09-12T22:02:49.439Z,54.81
2022-09-12T22:05:17.413Z,54.68
2022-09-12T22:07:44.373Z,56.21
2022-09-12T22:10:11.140Z,56.40
2022-09-12T22:12:37.837Z,56.58
2022-09-12T22:15:22.817Z,56.45
2022-09-12T22:17:51.935Z,54.85
2022-09-12T22:20:18.879Z,53.28
2022-09-12T22:23:04.277Z,53.21
2022-09-12T22:25:31.388Z,56.23
2022-09-12T22:27:58.506Z,55.36
2022-09-12T22:30:27.369Z,55.51
2022-09-12T22:32:54.156Z,56.61
2022-09-12T22:35:21.173Z,56.34
2022-09-12T22:37:48.186Z,55.80
2022-09-12T22:40:15.881Z,54.74
2022-09-12T22:42:42.815Z,54.49
2022-09-12T22:45:10.031Z,54.69
2022-09-12T22:47:36.726Z,55.96
2022-09-12T22:50:03.786Z,56.49
2022-09-12T22:52:30.597Z,56.64
2022-09-12T22:54:57.367Z,56.35
2022-09-12T22:57:24.077Z,54.13
2022-09-12T22:59:50.725Z,55.54
2022-09-12T23:02:17.413Z,55.30
2022-09-12T23:04:44.346Z,55.37
2022-09-12T23:07:11.217Z,55.41
2022-09-12T23:09:38.005Z,58.64
2022-09-12T23:12:04.797Z,58.87
2022-09-12T23:14:31.537Z,58.24
2022-09-12T23:16:58.166Z,58.50
2022-09-12T23:19:24.890Z,57.83
2022-09-12T23:21:51.557Z,57.76
2022-09-12T23:24:18.236Z,57.52
2022-09-12T23:26:44.886Z,61.86
2022-09-12T23:29:11.545Z,60.22
2022-09-12T23:31:38.306Z,59.96
2022-09-12T23:34:09.413Z,58.53
2022-09-12T23:36:37.199Z,58.43
2022-09-12T23:39:04.348Z,57.51
2022-09-12T23:41:31.423Z,57.60
2022-09-12T23:43:58.212Z,56.88
2022-09-12T23:46:24.897Z,57.16
2022-09-12T23:48:53.416Z,57.62
2022-09-12T23:51:21.838Z,59.51
2022-09-12T23:53:49.436Z,59.02
2022-09-12T23:56:16.454Z,59.13
2022-09-12T23:58:43.198Z,59.54
